createdAt,value
2023-04-28T00:02:09.457Z,8.50
2023-04-28T00:04:36.185Z,5.20
2023-04-28T00:07:02.981Z,7.63
2023-04-28T00:09:29.592Z,8.25
2023-04-28T00:11:56.189Z,5.50
2023-04-28T00:14:23.303Z,8.67
2023-04-28T00:16:50.152Z,6.30
2023-04-28T00:19:16.811Z,5.83
2023-04-28T00:21:43.330Z,7.67
2023-04-28T00:24:09.824Z,8.00
2023-04-28T00:26:36.576Z,7.50
2023-04-28T00:29:03.149Z,6.53
2023-04-28T00:31:29.915Z,7.83
2023-04-28T00:33:56.592Z,6.67
2023-04-28T00:36:23.233Z,7.03
2023-04-28T00:38:49.762Z,6.90
2023-04-28T00:41:16.518Z,8.10
2023-04-28T00:43:47.530Z,5.70
2023-04-28T00:46:22.332Z,8.70
2023-04-28T00:48:50.094Z,6.27
2023-04-28T00:51:17.437Z,7.37
2023-04-28T00:53:44.530Z,4.97
2023-04-28T00:56:12.167Z,5.97
2023-04-28T00:58:39.025Z,5.73
2023-04-28T01:01:07.130Z,6.30
2023-04-28T01:03:42.632Z,7.93
2023-04-28T01:06:10.557Z,5.33
2023-04-28T01:08:38.886Z,6.97
2023-04-28T01:11:05.636Z,6.40
2023-04-28T01:13:32.256Z,6.80
2023-04-28T01:15:59.030Z,5.97
2023-04-28T01:18:25.740Z,6.63
2023-04-28T01:20:52.308Z,5.93
2023-04-28T01:23:19.174Z,6.60
2023-04-28T01:25:45.858Z,8.97
2023-04-28T01:28:12.438Z,5.67
2023-04-28T01:30:38.986Z,6.90
2023-04-28T01:33:05.573Z,5.47
2023-04-28T01:35:32.139Z,8.50
2023-04-28T01:37:58.720Z,6.00
2023-04-28T01:40:25.322Z,6.77
2023-04-28T01:42:52.029Z,8.00
2023-04-28T01:45:18.576Z,5.10
2023-04-28T01:47:45.207Z,9.90
2023-04-28T01:50:11.756Z,5.20
2023-04-28T01:52:38.247Z,5.40
2023-04-28T01:55:05.532Z,7.23
2023-04-28T01:57:33.385Z,6.20
2023-04-28T02:00:00.531Z,6.77
2023-04-28T02:02:27.161Z,7.07
2023-04-28T02:04:53.870Z,6.67
2023-04-28T02:07:20.508Z,6.73
2023-04-28T02:09:47.147Z,4.70
2023-04-28T02:12:13.769Z,7.47
2023-04-28T02:14:40.303Z,8.13
2023-04-28T02:17:06.847Z,8.33
2023-04-28T02:19:33.363Z,9.40
2023-04-28T02:21:59.911Z,8.57
2023-04-28T02:24:26.825Z,9.23
2023-04-28T02:26:53.598Z,8.37
2023-04-28T02:29:20.260Z,8.73
2023-04-28T02:31:46.828Z,7.53
2023-04-28T02:34:14.712Z,10.20
2023-04-28T02:36:41.464Z,6.93
2023-04-28T02:39:07.998Z,7.17
2023-04-28T02:41:34.632Z,6.27
2023-04-28T02:44:01.243Z,6.73
2023-04-28T02:46:27.832Z,8.07
2023-04-28T02:48:54.418Z,6.20
2023-04-28T02:51:21.072Z,9.00
2023-04-28T02:53:47.723Z,6.30
2023-04-28T02:56:14.366Z,5.43
2023-04-28T02:58:40.888Z,7.47
2023-04-28T03:01:07.444Z,6.30
2023-04-28T03:03:34.284Z,4.90
2023-04-28T03:06:01.083Z,5.50
2023-04-28T03:08:27.582Z,6.47
2023-04-28T03:10:54.170Z,5.60
2023-04-28T03:13:20.731Z,6.70
2023-04-28T03:15:47.320Z,7.93
2023-04-28T03:18:13.978Z,9.60
2023-04-28T03:20:40.491Z,9.27
2023-04-28T03:23:07.392Z,8.27
2023-04-28T03:25:33.941Z,6.77
2023-04-28T03:28:00.514Z,8.40
2023-04-28T03:30:27.080Z,5.90
2023-04-28T03:32:53.677Z,7.00
2023-04-28T03:35:20.285Z,8.60
2023-04-28T03:37:46.969Z,8.60
2023-04-28T03:40:13.582Z,8.30
2023-04-28T03:42:40.312Z,6.33
2023-04-28T03:45:07.814Z,10.63
2023-04-28T03:47:34.574Z,6.10
2023-04-28T03:50:01.111Z,8.10
2023-04-28T03:52:27.667Z,8.53
2023-04-28T03:54:54.306Z,7.10
2023-04-28T03:57:20.882Z,7.73
2023-04-28T03:59:47.433Z,7.80
2023-04-28T04:02:14.009Z,7.93
2023-04-28T04:04:40.818Z,9.03
2023-04-28T04:07:07.519Z,8.37
2023-04-28T04:09:34.152Z,11.40
2023-04-28T04:12:01.212Z,9.13
2023-04-28T04:14:27.785Z,7.40
2023-04-28T04:16:55.432Z,8.40
2023-04-28T04:19:23.944Z,7.90
2023-04-28T04:21:50.668Z,7.57
2023-04-28T04:24:17.366Z,8.80
2023-04-28T04:26:44.189Z,8.93
2023-04-28T04:29:10.761Z,7.50
2023-04-28T04:31:37.610Z,7.43
2023-04-28T04:34:04.232Z,7.40
2023-04-28T04:36:32.829Z,9.43
2023-04-28T04:38:59.445Z,7.50
2023-04-28T04:41:26.735Z,6.90
2023-04-28T04:43:53.266Z,7.03
2023-04-28T04:46:20.073Z,9.43
2023-04-28T04:48:47.032Z,8.47
2023-04-28T04:51:13.579Z,7.83
2023-04-28T04:53:40.194Z,8.63
2023-04-28T04:56:06.857Z,6.13
2023-04-28T04:58:33.531Z,7.43
2023-04-28T05:01:00.094Z,7.63
2023-04-28T05:03:26.850Z,7.10
2023-04-28T05:05:53.534Z,8.70
2023-04-28T05:08:20.145Z,8.87
2023-04-28T05:10:46.811Z,7.93
2023-04-28T05:13:13.370Z,10.93
2023-04-28T05:15:40.191Z,8.33
2023-04-28T05:18:10.850Z,11.30
2023-04-28T05:20:37.821Z,9.07
2023-04-28T05:23:04.384Z,9.43
2023-04-28T05:25:31.107Z,8.50
2023-04-28T05:27:57.731Z,8.53
2023-04-28T05:30:24.345Z,10.70
2023-04-28T05:32:51.005Z,7.43
2023-04-28T05:35:17.626Z,7.20
2023-04-28T05:37:45.105Z,7.77
2023-04-28T05:40:11.848Z,6.30
2023-04-28T05:42:38.410Z,5.63
2023-04-28T05:45:06.759Z,7.15
2023-04-28T05:47:33.396Z,7.03
2023-04-28T05:49:59.976Z,5.73
2023-04-28T05:52:26.574Z,8.57
2023-04-28T05:54:53.154Z,7.07
2023-04-28T05:57:20.000Z,5.70
2023-04-28T05:59:46.877Z,5.97
2023-04-28T06:02:13.450Z,7.43
2023-04-28T06:04:40.281Z,7.83
2023-04-28T06:07:08.465Z,7.60
2023-04-28T06:09:35.090Z,5.60
2023-04-28T06:12:01.639Z,6.60
2023-04-28T06:14:28.147Z,7.37
2023-04-28T06:16:54.773Z,6.00
2023-04-28T06:19:21.501Z,6.80
2023-04-28T06:21:51.437Z,5.37
2023-04-28T06:24:18.288Z,4.63
2023-04-28T06:26:45.165Z,5.57
2023-04-28T06:29:11.753Z,6.70
2023-04-28T06:31:38.372Z,6.93
2023-04-28T06:34:04.989Z,5.37
2023-04-28T06:36:31.567Z,5.57
2023-04-28T06:38:58.757Z,6.33
2023-04-28T06:41:25.675Z,5.70
2023-04-28T06:43:52.293Z,5.23
2023-04-28T06:46:18.971Z,5.97
2023-04-28T06:48:45.569Z,6.60
2023-04-28T06:51:12.395Z,5.70
2023-04-28T06:53:39.113Z,6.73
2023-04-28T06:56:05.941Z,7.97
2023-04-28T06:58:32.707Z,6.40
2023-04-28T07:00:59.517Z,5.73
2023-04-28T07:03:27.761Z,6.40
2023-04-28T07:05:54.485Z,10.27
2023-04-28T07:08:21.123Z,6.97
2023-04-28T07:10:47.804Z,6.57
2023-04-28T07:13:14.381Z,5.63
2023-04-28T07:15:41.197Z,11.73
2023-04-28T07:18:07.808Z,6.10
2023-04-28T07:20:34.359Z,6.60
2023-04-28T07:23:00.933Z,7.50
2023-04-28T07:25:27.652Z,7.73
2023-04-28T07:27:54.249Z,6.40
2023-04-28T07:30:29.409Z,6.73
2023-04-28T07:32:56.265Z,6.30
2023-04-28T07:35:23.624Z,5.50
2023-04-28T07:37:50.509Z,9.43
2023-04-28T07:40:17.757Z,7.13
2023-04-28T07:42:44.741Z,7.17
2023-04-28T07:45:11.742Z,6.10
2023-04-28T07:47:38.525Z,6.10
2023-04-28T07:50:06.582Z,8.17
2023-04-28T07:52:34.036Z,7.30
2023-04-28T07:55:02.316Z,7.70
2023-04-28T07:57:32.053Z,9.23
2023-04-28T07:59:58.644Z,13.00
2023-04-28T08:02:26.837Z,9.43
2023-04-28T08:04:53.817Z,11.67
2023-04-28T08:07:20.688Z,11.10
2023-04-28T08:09:48.136Z,8.90
2023-04-28T08:12:15.136Z,15.60
2023-04-28T08:14:41.797Z,10.67
2023-04-28T08:17:08.450Z,9.87
2023-04-28T08:19:35.237Z,18.80
2023-04-28T08:22:05.727Z,19.03
2023-04-28T08:24:34.259Z,19.60
2023-04-28T08:27:03.059Z,22.23
2023-04-28T08:29:32.736Z,20.03
2023-04-28T08:31:59.602Z,21.33
2023-04-28T08:34:26.161Z,19.17
2023-04-28T08:36:53.340Z,21.73
2023-04-28T08:39:23.733Z,16.07
2023-04-28T08:41:53.840Z,20.00
2023-04-28T08:44:20.434Z,14.70
2023-04-28T08:46:49.615Z,17.58
2023-04-28T08:49:18.376Z,15.17
2023-04-28T08:51:48.783Z,13.03
2023-04-28T08:54:26.103Z,13.03
2023-04-28T08:56:53.012Z,12.37
2023-04-28T08:59:20.267Z,14.97
2023-04-28T09:01:49.563Z,10.40
2023-04-28T09:04:18.581Z,10.50
2023-04-28T09:06:46.390Z,9.37
2023-04-28T09:09:27.873Z,10.63
2023-04-28T09:12:03.741Z,8.77
2023-04-28T09:14:33.018Z,9.27
2023-04-28T09:16:59.925Z,9.60
2023-04-28T09:19:36.898Z,10.83
2023-04-28T09:22:17.644Z,8.80
2023-04-28T09:24:53.062Z,9.90
2023-04-28T09:27:27.930Z,9.03
2023-04-28T09:29:54.671Z,9.80
2023-04-28T09:32:23.225Z,10.63
2023-04-28T09:34:52.121Z,6.90
2023-04-28T09:37:20.302Z,6.43
2023-04-28T09:39:51.676Z,6.60
2023-04-28T09:42:37.198Z,5.80
2023-04-28T09:45:06.640Z,5.97
2023-04-28T09:47:35.837Z,4.90
2023-04-28T09:50:06.466Z,6.60
2023-04-28T09:52:34.849Z,5.63
2023-04-28T09:55:08.692Z,5.73
2023-04-28T09:57:36.444Z,5.20
2023-04-28T10:00:06.444Z,5.47
2023-04-28T10:02:42.760Z,4.07
2023-04-28T10:05:11.804Z,4.67
2023-04-28T10:07:40.019Z,5.47
2023-04-28T10:10:08.232Z,6.13
2023-04-28T10:12:38.034Z,4.63
2023-04-28T10:15:05.568Z,5.50
2023-04-28T10:17:33.127Z,3.07
2023-04-28T10:20:00.801Z,2.80
2023-04-28T10:22:36.986Z,3.20
2023-04-28T10:25:06.786Z,3.47
2023-04-28T10:27:35.191Z,1.90
2023-04-28T10:30:27.407Z,1.70
2023-04-28T10:33:14.690Z,1.70
2023-04-28T10:35:42.819Z,2.63
2023-04-28T10:38:12.184Z,2.60
2023-04-28T10:40:40.445Z,2.30
2023-04-28T10:43:11.596Z,2.63
2023-04-28T10:45:56.869Z,1.97
2023-04-28T10:48:44.608Z,1.80
2023-04-28T10:51:12.942Z,1.70
2023-04-28T10:53:46.736Z,1.97
2023-04-28T10:56:19.136Z,1.83
2023-04-28T10:58:47.103Z,1.67
2023-04-28T11:01:26.081Z,2.90
2023-04-28T11:04:04.515Z,1.30
2023-04-28T11:06:34.375Z,1.47
2023-04-28T11:09:02.154Z,1.10
2023-04-28T11:11:29.907Z,1.40
2023-04-28T11:14:17.083Z,1.17
2023-04-28T11:16:51.300Z,1.03
2023-04-28T11:19:20.116Z,1.20
2023-04-28T11:21:48.198Z,1.30
2023-04-28T11:24:15.519Z,1.10
2023-04-28T11:26:42.663Z,1.37
2023-04-28T11:29:10.538Z,1.30
2023-04-28T11:31:38.132Z,1.00
2023-04-28T11:34:16.808Z,2.40
2023-04-28T11:36:43.848Z,1.77
2023-04-28T11:39:11.429Z,3.67
2023-04-28T11:41:42.115Z,1.30
2023-04-28T11:44:12.174Z,2.37
2023-04-28T11:46:46.072Z,1.40
2023-04-28T11:49:14.981Z,1.50
2023-04-28T11:51:43.137Z,1.80
2023-04-28T11:54:14.742Z,1.70
2023-04-28T11:56:42.672Z,2.77
2023-04-28T11:59:11.289Z,1.40
2023-04-28T12:01:47.354Z,2.13
2023-04-28T12:04:14.863Z,1.70
2023-04-28T12:06:42.260Z,1.50
2023-04-28T12:09:24.881Z,1.60
2023-04-28T12:11:56.872Z,1.63
2023-04-28T12:14:24.689Z,2.00
2023-04-28T12:16:51.956Z,3.03
2023-04-28T12:19:20.094Z,1.50
2023-04-28T12:22:00.963Z,1.20
2023-04-28T12:24:28.510Z,1.30
2023-04-28T12:26:55.653Z,1.70
2023-04-28T12:29:39.103Z,3.70
2023-04-28T12:32:09.893Z,1.83
2023-04-28T12:34:37.476Z,1.73
2023-04-28T12:37:05.908Z,3.00
2023-04-28T12:39:39.486Z,2.27
2023-04-28T12:42:08.421Z,2.37
2023-04-28T12:44:40.875Z,2.37
2023-04-28T12:47:09.196Z,2.03
2023-04-28T12:49:36.389Z,2.47
2023-04-28T12:52:04.861Z,2.80
2023-04-28T12:54:31.779Z,2.13
2023-04-28T12:56:58.376Z,1.87
2023-04-28T12:59:25.064Z,2.63
2023-04-28T13:01:51.738Z,2.90
2023-04-28T13:04:24.954Z,4.30
2023-04-28T13:06:52.761Z,3.50
2023-04-28T13:09:19.778Z,2.27
2023-04-28T13:11:47.237Z,1.80
2023-04-28T13:14:14.294Z,1.60
2023-04-28T13:16:41.551Z,2.50
2023-04-28T13:19:11.098Z,1.70
2023-04-28T13:21:39.399Z,2.53
2023-04-28T13:24:06.715Z,1.67
2023-04-28T13:26:34.184Z,3.27
2023-04-28T13:29:02.243Z,2.03
2023-04-28T13:31:30.265Z,1.73
2023-04-28T13:33:57.645Z,3.43
2023-04-28T13:36:24.676Z,1.30
2023-04-28T13:38:52.015Z,1.40
2023-04-28T13:41:19.403Z,4.33
2023-04-28T13:43:46.470Z,1.48
2023-04-28T13:46:13.616Z,3.20
2023-04-28T13:48:41.140Z,2.00
2023-04-28T13:51:08.665Z,4.43
2023-04-28T13:53:37.902Z,2.70
2023-04-28T13:56:06.769Z,4.47
2023-04-28T13:58:33.933Z,2.37
2023-04-28T14:01:01.201Z,3.13
2023-04-28T14:03:28.876Z,3.07
2023-04-28T14:05:56.805Z,2.70
2023-04-28T14:08:26.452Z,2.70
2023-04-28T14:10:54.726Z,3.70
2023-04-28T14:13:21.825Z,2.67
2023-04-28T14:15:58.451Z,2.10
2023-04-28T14:18:25.991Z,4.87
2023-04-28T14:20:54.337Z,4.45
2023-04-28T14:23:21.660Z,3.17
2023-04-28T14:25:49.110Z,3.77
2023-04-28T14:28:16.546Z,3.07
2023-04-28T14:30:43.668Z,2.73
2023-04-28T14:33:10.736Z,2.63
2023-04-28T14:35:37.971Z,3.10
2023-04-28T14:38:05.051Z,2.43
2023-04-28T14:40:32.290Z,2.20
2023-04-28T14:42:59.310Z,2.90
2023-04-28T14:45:26.343Z,5.00
2023-04-28T14:47:53.776Z,2.47
2023-04-28T14:50:21.038Z,2.93
2023-04-28T14:52:48.080Z,2.20
2023-04-28T14:55:15.090Z,2.57
2023-04-28T14:57:42.632Z,2.87
2023-04-28T15:00:09.948Z,3.70
2023-04-28T15:02:37.155Z,2.70
2023-04-28T15:05:04.611Z,2.40
2023-04-28T15:07:32.533Z,2.70
2023-04-28T15:09:59.955Z,2.27
2023-04-28T15:12:30.034Z,1.60
2023-04-28T15:14:57.212Z,3.07
2023-04-28T15:17:24.779Z,1.67
2023-04-28T15:19:52.021Z,2.17
2023-04-28T15:22:19.101Z,1.90
2023-04-28T15:24:46.537Z,1.00
2023-04-28T15:27:14.241Z,3.45
2023-04-28T15:29:41.355Z,1.57
2023-04-28T15:32:08.592Z,1.10
2023-04-28T15:34:35.780Z,1.48
2023-04-28T15:37:03.675Z,1.03
2023-04-28T15:39:30.708Z,1.00
2023-04-28T15:41:58.597Z,1.87
2023-04-28T15:44:25.686Z,9.00
2023-04-28T15:46:52.829Z,1.40
2023-04-28T15:49:20.547Z,2.40
2023-04-28T15:51:47.558Z,1.73
2023-04-28T15:54:14.638Z,1.00
2023-04-28T15:56:41.637Z,0.80
2023-04-28T15:59:10.233Z,1.27
2023-04-28T16:01:37.255Z,1.20
2023-04-28T16:04:04.713Z,0.83
2023-04-28T16:06:32.391Z,1.30
2023-04-28T16:08:59.659Z,1.33
2023-04-28T16:11:26.654Z,1.57
2023-04-28T16:13:53.618Z,2.00
2023-04-28T16:16:22.095Z,1.00
2023-04-28T16:18:49.559Z,1.93
2023-04-28T16:21:17.354Z,2.60
2023-04-28T16:23:47.515Z,4.23
2023-04-28T16:26:14.941Z,2.27
2023-04-28T16:28:41.934Z,1.83
2023-04-28T16:31:11.352Z,1.47
2023-04-28T16:33:37.901Z,2.77
2023-04-28T16:36:05.526Z,1.47
2023-04-28T16:38:32.236Z,1.83
2023-04-28T16:40:58.801Z,1.57
2023-04-28T16:43:25.527Z,3.60
2023-04-28T16:45:52.136Z,1.57
2023-04-28T16:48:20.602Z,1.50
2023-04-28T16:50:47.204Z,1.70
2023-04-28T16:53:13.755Z,2.17
2023-04-28T16:55:40.430Z,1.70
2023-04-28T16:58:07.589Z,2.43
2023-04-28T17:00:34.143Z,2.93
2023-04-28T17:03:00.859Z,1.60
2023-04-28T17:05:28.677Z,1.90
2023-04-28T17:07:55.479Z,4.60
2023-04-28T17:10:22.617Z,2.53
2023-04-28T17:12:49.238Z,4.20
2023-04-28T17:15:17.389Z,3.87
2023-04-28T17:17:49.751Z,4.40
2023-04-28T17:20:17.981Z,2.70
2023-04-28T17:22:44.590Z,1.53
2023-04-28T17:25:12.049Z,2.00
2023-04-28T17:27:38.899Z,1.30
2023-04-28T17:30:09.817Z,2.57
2023-04-28T17:32:36.969Z,2.10
2023-04-28T17:35:03.932Z,2.43
2023-04-28T17:37:32.525Z,1.23
2023-04-28T17:39:59.215Z,2.20
2023-04-28T17:42:27.794Z,1.60
2023-04-28T17:44:54.752Z,1.43
2023-04-28T17:47:21.303Z,2.93
2023-04-28T17:49:47.943Z,2.83
2023-04-28T17:52:15.418Z,3.90
2023-04-28T17:54:42.383Z,2.30
2023-04-28T17:57:08.969Z,3.03
2023-04-28T17:59:35.728Z,3.90
2023-04-28T18:02:02.320Z,2.10
2023-04-28T18:04:32.972Z,2.43
2023-04-28T18:07:02.549Z,2.50
2023-04-28T18:09:31.653Z,3.43
2023-04-28T18:11:58.724Z,2.87
2023-04-28T18:14:25.805Z,2.13
2023-04-28T18:16:52.854Z,2.90
2023-04-28T18:19:20.981Z,1.93
2023-04-28T18:21:47.520Z,3.50
2023-04-28T18:24:14.090Z,5.07
2023-04-28T18:26:40.770Z,2.77
2023-04-28T18:29:07.348Z,2.67
2023-04-28T18:31:34.681Z,2.07
2023-04-28T18:34:02.083Z,2.40
2023-04-28T18:36:28.648Z,2.67
2023-04-28T18:38:57.619Z,3.40
2023-04-28T18:41:24.714Z,2.23
2023-04-28T18:43:51.829Z,2.60
2023-04-28T18:46:18.615Z,3.27
2023-04-28T18:48:45.379Z,2.63
2023-04-28T18:51:12.544Z,3.00
2023-04-28T18:53:39.184Z,3.47
2023-04-28T18:56:05.797Z,2.87
2023-04-28T18:58:32.698Z,2.97
2023-04-28T19:00:59.672Z,4.53
2023-04-28T19:03:27.018Z,3.10
2023-04-28T19:05:54.161Z,3.23
2023-04-28T19:08:20.687Z,3.67
2023-04-28T19:10:48.994Z,2.93
2023-04-28T19:13:16.136Z,3.80
2023-04-28T19:15:42.702Z,4.23
2023-04-28T19:18:09.383Z,3.43
2023-04-28T19:20:36.151Z,4.83
2023-04-28T19:23:03.692Z,4.00
2023-04-28T19:25:33.461Z,3.30
2023-04-28T19:28:00.039Z,5.47
2023-04-28T19:30:26.799Z,4.50
2023-04-28T19:32:53.394Z,4.63
2023-04-28T19:35:20.350Z,4.00
2023-04-28T19:37:48.312Z,4.13
2023-04-28T19:40:16.172Z,4.20
2023-04-28T19:42:42.727Z,5.50
2023-04-28T19:45:09.967Z,4.93
2023-04-28T19:47:36.841Z,5.40
2023-04-28T19:50:05.118Z,4.73
2023-04-28T19:52:31.677Z,6.20
2023-04-28T19:54:58.384Z,5.10
2023-04-28T19:57:24.968Z,4.37
2023-04-28T19:59:51.688Z,5.80
2023-04-28T20:02:18.752Z,4.43
2023-04-28T20:04:46.187Z,7.80
2023-04-28T20:07:13.205Z,8.47
2023-04-28T20:09:39.811Z,7.73
2023-04-28T20:12:08.641Z,7.33
2023-04-28T20:14:35.799Z,7.60
2023-04-28T20:17:03.696Z,7.43
2023-04-28T20:19:30.688Z,8.43
2023-04-28T20:21:57.394Z,6.93
2023-04-28T20:24:24.026Z,6.30
2023-04-28T20:26:51.330Z,7.67
2023-04-28T20:29:17.978Z,6.67
2023-04-28T20:31:44.709Z,6.30
2023-04-28T20:34:12.532Z,6.50
2023-04-28T20:36:41.132Z,7.53
2023-04-28T20:39:11.573Z,6.20
2023-04-28T20:41:40.789Z,5.70
2023-04-28T20:44:07.624Z,5.80
2023-04-28T20:46:35.383Z,6.00
2023-04-28T20:49:03.014Z,6.77
2023-04-28T20:51:30.045Z,5.20
2023-04-28T20:53:57.643Z,7.33
2023-04-28T20:56:24.392Z,5.60
2023-04-28T20:58:50.972Z,5.70
2023-04-28T21:01:17.965Z,5.95
2023-04-28T21:03:44.643Z,6.03
2023-04-28T21:06:11.539Z,5.83
2023-04-28T21:08:38.547Z,6.87
2023-04-28T21:11:11.894Z,5.13
2023-04-28T21:13:38.946Z,4.60
2023-04-28T21:16:05.952Z,5.30
2023-04-28T21:18:32.535Z,5.57
2023-04-28T21:20:59.099Z,4.87
2023-04-28T21:23:25.688Z,4.60
2023-04-28T21:25:52.356Z,5.77
2023-04-28T21:28:18.930Z,5.63
2023-04-28T21:30:45.496Z,5.47
2023-04-28T21:33:12.457Z,4.97
2023-04-28T21:35:39.048Z,4.53
2023-04-28T21:38:05.669Z,5.23
2023-04-28T21:40:32.251Z,4.50
2023-04-28T21:42:58.788Z,4.37
2023-04-28T21:45:25.342Z,5.83
2023-04-28T21:47:51.982Z,5.43
2023-04-28T21:50:18.870Z,5.07
2023-04-28T21:52:45.411Z,5.00
2023-04-28T21:55:12.060Z,5.50
2023-04-28T21:57:38.625Z,5.17
2023-04-28T22:00:06.383Z,6.63
2023-04-28T22:02:33.240Z,5.93
2023-04-28T22:05:00.002Z,5.87
2023-04-28T22:07:28.249Z,7.00
2023-04-28T22:09:54.996Z,6.00
2023-04-28T22:12:21.535Z,5.80
2023-04-28T22:14:48.100Z,6.28
2023-04-28T22:17:14.965Z,6.80
2023-04-28T22:19:41.515Z,5.00
2023-04-28T22:22:08.873Z,7.97
2023-04-28T22:24:35.498Z,4.97
2023-04-28T22:27:02.067Z,4.87
2023-04-28T22:29:28.637Z,4.53
2023-04-28T22:31:55.269Z,4.60
2023-04-28T22:34:22.435Z,4.27
2023-04-28T22:36:49.378Z,4.13
2023-04-28T22:39:15.951Z,4.47
2023-04-28T22:41:42.497Z,4.10
2023-04-28T22:44:09.136Z,4.03
2023-04-28T22:46:35.942Z,4.23
2023-04-28T22:49:03.521Z,5.17
2023-04-28T22:51:31.428Z,4.63
2023-04-28T22:53:57.997Z,4.10
2023-04-28T22:56:24.605Z,4.10
2023-04-28T22:58:51.210Z,4.50
2023-04-28T23:01:17.847Z,4.43
2023-04-28T23:03:44.662Z,4.17
2023-04-28T23:06:11.406Z,3.73
2023-04-28T23:08:37.966Z,4.13
2023-04-28T23:11:07.914Z,3.83
2023-04-28T23:13:34.577Z,3.87
2023-04-28T23:16:01.205Z,3.93
2023-04-28T23:18:33.832Z,6.13
2023-04-28T23:21:00.495Z,8.70
2023-04-28T23:23:27.089Z,3.70
2023-04-28T23:25:53.679Z,4.73
2023-04-28T23:28:20.208Z,5.60
2023-04-28T23:30:46.968Z,3.63
2023-04-28T23:33:13.487Z,4.27
2023-04-28T23:35:41.884Z,3.50
2023-04-28T23:38:08.613Z,3.53
2023-04-28T23:40:35.227Z,3.00
2023-04-28T23:43:02.058Z,3.20
2023-04-28T23:45:28.811Z,3.40
2023-04-28T23:47:55.430Z,3.83
2023-04-28T23:50:22.299Z,5.37
2023-04-28T23:52:48.850Z,5.23
2023-04-28T23:55:15.493Z,4.10
2023-04-28T23:57:42.086Z,4.90
